createdAt,value
2023-04-10T00:01:38.571Z,21.80
2023-04-10T00:04:06.279Z,25.00
2023-04-10T00:06:33.663Z,22.58
2023-04-10T00:09:02.510Z,20.63
2023-04-10T00:11:30.007Z,20.70
2023-04-10T00:13:57.333Z,22.08
2023-04-10T00:16:24.585Z,24.98
2023-04-10T00:18:51.919Z,24.33
2023-04-10T00:21:19.089Z,25.85
2023-04-10T00:23:46.375Z,23.25
2023-04-10T00:26:13.486Z,26.88
2023-04-10T00:28:42.359Z,28.10
2023-04-10T00:31:09.485Z,24.55
2023-04-10T00:33:37.172Z,25.50
2023-04-10T00:36:04.805Z,27.60
2023-04-10T00:38:32.215Z,28.20
2023-04-10T00:40:59.388Z,27.80
2023-04-10T00:43:27.276Z,29.10
2023-04-10T00:45:54.657Z,28.70
2023-04-10T00:48:22.397Z,26.17
2023-04-10T00:50:49.611Z,24.38
2023-04-10T00:53:17.254Z,24.25
2023-04-10T00:55:46.242Z,22.27
2023-04-10T00:58:14.617Z,26.60
2023-04-10T01:00:42.149Z,22.80
2023-04-10T01:03:13.105Z,26.95
2023-04-10T01:06:06.824Z,24.95
2023-04-10T01:08:45.133Z,24.55
2023-04-10T01:11:49.321Z,22.73
2023-04-10T01:14:30.521Z,23.88
2023-04-10T01:17:07.308Z,29.98
2023-04-10T01:20:18.533Z,27.00
2023-04-10T01:23:12.576Z,25.80
2023-04-10T01:25:54.417Z,25.70
2023-04-10T01:28:27.909Z,25.35
2023-04-10T01:31:01.290Z,26.30
2023-04-10T01:33:40.747Z,24.38
2023-04-10T01:36:11.338Z,22.95
2023-04-10T01:38:44.361Z,26.35
2023-04-10T01:41:13.262Z,26.35
2023-04-10T01:43:42.741Z,29.33
2023-04-10T01:46:12.554Z,28.30
2023-04-10T01:48:41.561Z,28.27
2023-04-10T01:51:11.265Z,27.65
2023-04-10T01:53:40.746Z,30.75
2023-04-10T01:56:09.401Z,29.85
2023-04-10T01:58:43.379Z,29.00
2023-04-10T02:01:22.367Z,29.70
2023-04-10T02:03:56.108Z,27.58
2023-04-10T02:06:50.511Z,27.67
2023-04-10T02:09:47.453Z,30.85
2023-04-10T02:12:30.271Z,29.55
2023-04-10T02:15:02.790Z,33.35
2023-04-10T02:17:32.692Z,30.23
2023-04-10T02:20:01.235Z,32.90
2023-04-10T02:22:29.118Z,32.47
2023-04-10T02:24:57.652Z,34.58
2023-04-10T02:27:32.646Z,34.65
2023-04-10T02:30:01.276Z,30.60
2023-04-10T02:32:30.101Z,36.33
2023-04-10T02:34:57.490Z,31.67
2023-04-10T02:37:26.226Z,32.72
2023-04-10T02:39:57.076Z,34.33
2023-04-10T02:42:26.373Z,35.28
2023-04-10T02:44:57.268Z,31.30
2023-04-10T02:47:25.910Z,33.63
2023-04-10T02:49:53.149Z,32.25
2023-04-10T02:52:20.807Z,32.72
2023-04-10T02:54:48.227Z,32.50
2023-04-10T02:57:16.740Z,34.47
2023-04-10T02:59:44.532Z,36.83
2023-04-10T03:02:13.150Z,39.15
2023-04-10T03:04:40.913Z,38.55
2023-04-10T03:07:08.640Z,39.33
2023-04-10T03:09:39.367Z,47.63
2023-04-10T03:12:06.781Z,46.80
2023-04-10T03:14:33.859Z,59.72
2023-04-10T03:17:01.298Z,51.95
2023-04-10T03:19:28.853Z,52.67
2023-04-10T03:21:56.267Z,57.88
2023-04-10T03:24:24.606Z,60.35
2023-04-10T03:26:52.494Z,58.55
2023-04-10T03:29:19.878Z,58.58
2023-04-10T03:31:47.317Z,70.60
2023-04-10T03:34:14.572Z,67.03
2023-04-10T03:36:41.973Z,71.70
2023-04-10T03:39:09.151Z,70.88
2023-04-10T03:41:36.847Z,70.55
2023-04-10T03:44:04.355Z,73.72
2023-04-10T03:46:31.818Z,72.03
2023-04-10T03:49:00.651Z,72.47
2023-04-10T03:51:31.567Z,72.18
2023-04-10T03:53:58.746Z,69.72
2023-04-10T03:56:26.114Z,67.13
2023-04-10T03:58:53.515Z,69.47
2023-04-10T04:01:22.029Z,68.47
2023-04-10T04:04:00.400Z,68.43
2023-04-10T04:06:47.103Z,73.25
2023-04-10T04:09:32.941Z,74.45
2023-04-10T04:12:35.962Z,70.10
2023-04-10T04:15:09.199Z,69.00
2023-04-10T04:17:52.199Z,70.20
2023-04-10T04:20:36.961Z,64.30
2023-04-10T04:23:22.607Z,67.65
2023-04-10T04:26:25.008Z,70.15
2023-04-10T04:29:15.660Z,71.00
2023-04-10T04:32:09.286Z,73.10
2023-04-10T04:34:57.472Z,72.22
2023-04-10T04:37:36.060Z,66.90
2023-04-10T04:40:35.803Z,71.60
2023-04-10T04:43:38.760Z,68.32
2023-04-10T04:46:25.104Z,76.07
2023-04-10T04:49:30.781Z,72.80
2023-04-10T04:52:17.254Z,76.90
2023-04-10T04:55:01.482Z,86.60
2023-04-10T04:57:37.112Z,72.80
2023-04-10T05:00:11.097Z,82.50
2023-04-10T05:02:58.847Z,80.82
2023-04-10T05:05:40.651Z,88.85
2023-04-10T05:08:46.903Z,83.97
2023-04-10T05:11:37.860Z,83.60
2023-04-10T05:14:20.480Z,78.10
2023-04-10T05:17:16.929Z,82.22
2023-04-10T05:20:06.073Z,75.03
2023-04-10T05:22:53.050Z,78.05
2023-04-10T05:25:41.008Z,71.88
2023-04-10T05:28:16.592Z,80.30
2023-04-10T05:31:19.049Z,81.10
2023-04-10T05:34:05.267Z,77.03
2023-04-10T05:36:39.623Z,78.70
2023-04-10T05:39:17.356Z,75.38
2023-04-10T05:42:03.596Z,74.30
2023-04-10T05:44:45.606Z,80.45
2023-04-10T05:47:36.267Z,68.60
2023-04-10T05:50:15.477Z,74.05
2023-04-10T05:53:00.422Z,69.57
2023-04-10T05:55:43.306Z,72.35
2023-04-10T05:58:28.589Z,72.50
2023-04-10T06:01:13.468Z,74.82
2023-04-10T06:03:52.665Z,69.75
2023-04-10T06:06:22.388Z,69.50
2023-04-10T06:08:50.180Z,67.43
2023-04-10T06:11:17.358Z,64.85
2023-04-10T06:13:48.904Z,65.22
2023-04-10T06:16:16.991Z,64.05
2023-04-10T06:18:46.534Z,64.22
2023-04-10T06:21:14.566Z,61.30
2023-04-10T06:23:42.134Z,64.07
2023-04-10T06:26:09.720Z,65.10
2023-04-10T06:28:37.696Z,56.88
2023-04-10T06:31:07.274Z,58.10
2023-04-10T06:33:37.090Z,56.58
2023-04-10T06:36:07.370Z,62.13
2023-04-10T06:38:42.551Z,58.33
2023-04-10T06:41:09.768Z,53.80
2023-04-10T06:43:39.327Z,56.90
2023-04-10T06:46:06.953Z,65.20
2023-04-10T06:48:34.930Z,54.85
2023-04-10T06:51:02.232Z,62.08
2023-04-10T06:53:30.064Z,57.20
2023-04-10T06:55:57.698Z,56.28
2023-04-10T06:58:25.192Z,54.35
2023-04-10T07:00:52.553Z,52.83
2023-04-10T07:03:20.114Z,57.00
2023-04-10T07:05:47.351Z,50.20
2023-04-10T07:08:14.659Z,57.15
2023-04-10T07:10:41.876Z,46.40
2023-04-10T07:13:09.160Z,50.70
2023-04-10T07:15:36.320Z,51.15
2023-04-10T07:18:03.900Z,60.13
2023-04-10T07:20:31.088Z,43.17
2023-04-10T07:22:58.398Z,45.13
2023-04-10T07:25:25.856Z,53.08
2023-04-10T07:27:53.259Z,48.13
2023-04-10T07:30:20.743Z,49.75
2023-04-10T07:32:48.504Z,53.42
2023-04-10T07:35:15.842Z,49.97
2023-04-10T07:37:44.170Z,54.83
2023-04-10T07:40:12.126Z,53.28
2023-04-10T07:42:39.564Z,53.80
2023-04-10T07:45:08.066Z,60.38
2023-04-10T07:47:35.395Z,55.53
2023-04-10T07:50:03.204Z,61.15
2023-04-10T07:52:30.851Z,65.63
2023-04-10T07:54:58.273Z,72.28
2023-04-10T07:57:25.615Z,68.80
2023-04-10T07:59:52.756Z,62.45
2023-04-10T08:02:20.396Z,60.17
2023-04-10T08:04:47.764Z,63.90
2023-04-10T08:07:15.304Z,59.78
2023-04-10T08:09:42.464Z,59.83
2023-04-10T08:12:09.748Z,59.75
2023-04-10T08:14:36.895Z,64.40
2023-04-10T08:17:04.437Z,64.57
2023-04-10T08:19:31.740Z,62.63
2023-04-10T08:21:59.007Z,64.95
2023-04-10T08:24:26.164Z,71.40
2023-04-10T08:26:53.442Z,66.55
2023-04-10T08:29:20.695Z,66.22
2023-04-10T08:31:47.990Z,70.93
2023-04-10T08:34:15.367Z,68.85
2023-04-10T08:36:42.773Z,66.85
2023-04-10T08:39:09.964Z,67.43
2023-04-10T08:41:37.358Z,68.75
2023-04-10T08:44:05.907Z,67.78
2023-04-10T08:46:37.540Z,64.13
2023-04-10T08:49:05.812Z,68.55
2023-04-10T08:51:42.933Z,72.80
2023-04-10T08:54:25.811Z,76.82
2023-04-10T08:56:55.871Z,70.88
2023-04-10T08:59:23.459Z,71.15
2023-04-10T09:01:50.940Z,77.47
2023-04-10T09:04:18.536Z,70.80
2023-04-10T09:06:47.198Z,79.93
2023-04-10T09:09:14.324Z,75.40
2023-04-10T09:11:56.372Z,80.00
2023-04-10T09:14:26.719Z,77.30
2023-04-10T09:17:10.417Z,77.07
2023-04-10T09:19:37.821Z,79.90
2023-04-10T09:22:05.439Z,81.88
2023-04-10T09:24:42.127Z,73.97
2023-04-10T09:27:10.743Z,88.13
2023-04-10T09:29:49.091Z,80.20
2023-04-10T09:32:48.939Z,81.80
2023-04-10T09:35:16.681Z,83.20
2023-04-10T09:37:46.614Z,90.22
2023-04-10T09:40:25.441Z,87.07
2023-04-10T09:42:55.931Z,92.60
2023-04-10T09:45:23.157Z,92.30
2023-04-10T09:48:08.053Z,94.35
2023-04-10T09:50:43.522Z,85.13
2023-04-10T09:53:19.265Z,76.85
2023-04-10T09:55:48.631Z,84.25
2023-04-10T09:58:17.998Z,88.65
2023-04-10T10:00:49.968Z,85.63
2023-04-10T10:03:21.399Z,87.45
2023-04-10T10:05:51.339Z,85.40
2023-04-10T10:08:19.034Z,85.93
2023-04-10T10:10:59.075Z,83.32
2023-04-10T10:13:44.480Z,91.28
2023-04-10T10:16:25.769Z,94.55
2023-04-10T10:19:16.659Z,100.07
2023-04-10T10:21:46.133Z,102.90
2023-04-10T10:24:15.906Z,101.93
2023-04-10T10:26:45.018Z,92.15
2023-04-10T10:29:17.223Z,90.47
2023-04-10T10:31:47.042Z,88.90
2023-04-10T10:34:16.499Z,85.05
2023-04-10T10:36:43.809Z,81.25
2023-04-10T10:39:39.575Z,82.25
2023-04-10T10:42:40.803Z,81.30
2023-04-10T10:45:50.387Z,80.13
2023-04-10T10:48:17.516Z,79.05
2023-04-10T10:51:00.914Z,72.57
2023-04-10T10:53:46.058Z,80.25
2023-04-10T10:56:35.063Z,76.75
2023-04-10T10:59:03.206Z,73.18
2023-04-10T11:01:30.581Z,83.90
2023-04-10T11:03:58.088Z,75.03
2023-04-10T11:06:51.303Z,75.47
2023-04-10T11:09:53.134Z,74.45
2023-04-10T11:12:26.158Z,75.57
2023-04-10T11:15:06.877Z,70.18
2023-04-10T11:17:52.468Z,70.22
2023-04-10T11:20:22.140Z,69.45
2023-04-10T11:23:11.246Z,78.75
2023-04-10T11:25:55.763Z,73.65
2023-04-10T11:28:32.798Z,74.47
2023-04-10T11:31:20.001Z,75.32
2023-04-10T11:34:05.207Z,78.68
2023-04-10T11:36:35.885Z,79.40
2023-04-10T11:39:09.923Z,79.93
2023-04-10T11:41:40.509Z,73.97
2023-04-10T11:44:11.656Z,72.50
2023-04-10T11:46:42.183Z,66.47
2023-04-10T11:49:11.104Z,69.82
2023-04-10T11:51:46.500Z,68.03
2023-04-10T11:54:18.622Z,71.43
2023-04-10T11:57:01.081Z,70.70
2023-04-10T11:59:31.001Z,73.43
2023-04-10T12:02:18.533Z,69.97
2023-04-10T12:04:46.789Z,68.47
2023-04-10T12:07:14.121Z,66.47
2023-04-10T12:09:42.697Z,65.53
2023-04-10T12:12:10.106Z,69.03
2023-04-10T12:14:40.647Z,63.03
2023-04-10T12:17:11.056Z,62.22
2023-04-10T12:19:40.129Z,64.75
2023-04-10T12:22:07.813Z,65.53
2023-04-10T12:24:53.730Z,64.50
2023-04-10T12:27:23.097Z,65.35
2023-04-10T12:29:53.100Z,60.72
2023-04-10T12:32:21.126Z,57.05
2023-04-10T12:34:57.524Z,59.75
2023-04-10T12:37:46.357Z,60.13
2023-04-10T12:40:14.608Z,60.25
2023-04-10T12:42:42.909Z,60.75
2023-04-10T12:45:13.823Z,61.50
2023-04-10T12:47:52.006Z,53.33
2023-04-10T12:50:23.548Z,60.53
2023-04-10T12:53:09.367Z,57.08
2023-04-10T12:55:37.555Z,61.20
2023-04-10T12:58:22.479Z,54.83
2023-04-10T13:00:50.438Z,56.53
2023-04-10T13:03:17.578Z,57.67
2023-04-10T13:05:46.009Z,58.60
2023-04-10T13:08:13.763Z,55.83
2023-04-10T13:10:42.242Z,49.50
2023-04-10T13:13:12.915Z,52.10
2023-04-10T13:15:40.959Z,52.17
2023-04-10T13:18:10.376Z,52.53
2023-04-10T13:20:40.139Z,54.17
2023-04-10T13:23:08.364Z,51.33
2023-04-10T13:25:42.910Z,48.90
2023-04-10T13:28:11.204Z,52.13
2023-04-10T13:30:41.383Z,49.30
2023-04-10T13:33:09.881Z,51.88
2023-04-10T13:35:37.556Z,53.33
2023-04-10T13:38:04.872Z,52.97
2023-04-10T13:40:32.319Z,49.28
2023-04-10T13:42:59.495Z,53.15
2023-04-10T13:45:27.016Z,51.50
2023-04-10T13:47:54.338Z,46.63
2023-04-10T13:50:21.814Z,48.67
2023-04-10T13:52:48.896Z,49.50
2023-04-10T13:55:16.466Z,50.40
2023-04-10T13:57:44.285Z,48.47
2023-04-10T14:00:12.424Z,47.53
2023-04-10T14:02:42.748Z,44.33
2023-04-10T14:05:10.916Z,44.38
2023-04-10T14:07:38.057Z,47.22
2023-04-10T14:10:06.994Z,47.83
2023-04-10T14:12:35.294Z,44.63
2023-04-10T14:15:04.000Z,41.78
2023-04-10T14:17:31.643Z,47.22
2023-04-10T14:19:59.063Z,49.20
2023-04-10T14:22:26.121Z,44.05
2023-04-10T14:25:05.141Z,44.17
2023-04-10T14:27:36.845Z,44.17
2023-04-10T14:30:05.312Z,51.30
2023-04-10T14:32:32.470Z,43.50
2023-04-10T14:34:59.810Z,48.28
2023-04-10T14:37:27.039Z,42.30
2023-04-10T14:39:54.295Z,45.55
2023-04-10T14:42:23.532Z,44.70
2023-04-10T14:44:50.838Z,40.38
2023-04-10T14:47:17.980Z,41.47
2023-04-10T14:49:45.412Z,50.17
2023-04-10T14:52:12.679Z,44.88
2023-04-10T14:54:40.231Z,39.00
2023-04-10T14:57:07.863Z,41.08
2023-04-10T14:59:35.678Z,36.22
2023-04-10T15:02:02.752Z,35.55
2023-04-10T15:04:30.273Z,41.00
2023-04-10T15:06:57.528Z,45.03
2023-04-10T15:09:25.231Z,42.88
2023-04-10T15:11:52.656Z,44.30
2023-04-10T15:14:19.991Z,37.95
2023-04-10T15:16:47.367Z,38.25
2023-04-10T15:19:14.732Z,38.47
2023-04-10T15:21:41.922Z,41.45
2023-04-10T15:24:09.236Z,44.90
2023-04-10T15:26:36.555Z,43.22
2023-04-10T15:29:04.108Z,40.17
2023-04-10T15:31:31.253Z,47.30
2023-04-10T15:33:58.571Z,43.90
2023-04-10T15:36:25.815Z,43.95
2023-04-10T15:38:53.283Z,48.80
2023-04-10T15:41:20.414Z,42.85
2023-04-10T15:43:48.604Z,46.13
2023-04-10T15:46:18.969Z,41.85
2023-04-10T15:48:46.424Z,44.00
2023-04-10T15:51:14.154Z,44.15
2023-04-10T15:53:41.695Z,49.38
2023-04-10T15:56:09.072Z,44.97
2023-04-10T15:58:36.767Z,45.17
2023-04-10T16:01:04.518Z,45.80
2023-04-10T16:03:32.154Z,40.60
2023-04-10T16:05:59.589Z,43.22
2023-04-10T16:08:27.558Z,44.30
2023-04-10T16:10:55.801Z,42.50
2023-04-10T16:13:23.355Z,40.20
2023-04-10T16:15:51.520Z,40.25
2023-04-10T16:18:19.196Z,38.13
2023-04-10T16:20:46.391Z,38.67
2023-04-10T16:23:13.688Z,36.08
2023-04-10T16:25:40.822Z,38.85
2023-04-10T16:28:09.296Z,38.30
2023-04-10T16:30:39.526Z,32.83
2023-04-10T16:33:07.336Z,36.55
2023-04-10T16:35:34.722Z,34.88
2023-04-10T16:38:02.575Z,35.08
2023-04-10T16:40:32.931Z,36.13
2023-04-10T16:43:01.843Z,33.50
2023-04-10T16:45:29.786Z,32.65
2023-04-10T16:47:57.656Z,33.15
2023-04-10T16:50:24.909Z,30.70
2023-04-10T16:52:52.745Z,30.60
2023-04-10T16:55:20.194Z,29.40
2023-04-10T16:57:47.904Z,29.23
2023-04-10T17:00:15.442Z,28.77
2023-04-10T17:02:43.176Z,27.73
2023-04-10T17:05:11.389Z,30.00
2023-04-10T17:07:38.934Z,27.90
2023-04-10T17:10:06.847Z,30.45
2023-04-10T17:12:34.376Z,27.48
2023-04-10T17:15:01.960Z,30.75
2023-04-10T17:17:29.766Z,31.00
2023-04-10T17:19:58.452Z,27.30
2023-04-10T17:22:26.162Z,29.90
2023-04-10T17:24:53.439Z,31.23
2023-04-10T17:27:20.878Z,25.45
2023-04-10T17:29:48.331Z,29.98
2023-04-10T17:32:15.661Z,28.02
2023-04-10T17:34:42.854Z,28.55
2023-04-10T17:37:10.253Z,28.58
2023-04-10T17:39:37.284Z,28.77
2023-04-10T17:42:05.085Z,26.48
2023-04-10T17:44:32.322Z,28.58
2023-04-10T17:47:01.358Z,30.73
2023-04-10T17:49:28.514Z,30.23
2023-04-10T17:51:55.841Z,28.60
2023-04-10T17:54:22.899Z,30.10
2023-04-10T17:56:52.892Z,28.52
2023-04-10T17:59:20.194Z,29.10
2023-04-10T18:01:48.213Z,28.88
2023-04-10T18:04:16.084Z,26.77
2023-04-10T18:06:43.711Z,27.30
2023-04-10T18:09:11.458Z,67.15
2023-04-10T18:11:40.604Z,95.75
2023-04-10T18:14:07.881Z,75.10
2023-04-10T18:16:36.091Z,56.55
2023-04-10T18:19:03.530Z,83.95
2023-04-10T18:21:31.483Z,64.50
2023-04-10T18:23:58.919Z,37.72
2023-04-10T18:26:29.682Z,21.45
2023-04-10T18:28:57.478Z,23.60
2023-04-10T18:31:24.979Z,22.17
2023-04-10T18:34:00.226Z,20.15
2023-04-10T18:36:34.741Z,19.10
2023-04-10T18:39:02.098Z,14.68
2023-04-10T18:41:29.740Z,13.23
2023-04-10T18:44:05.026Z,14.70
2023-04-10T18:46:33.754Z,11.65
2023-04-10T18:49:01.597Z,10.45
2023-04-10T18:51:34.983Z,11.98
2023-04-10T18:54:06.115Z,8.88
2023-04-10T18:56:35.661Z,9.68
2023-04-10T18:59:04.225Z,8.27
2023-04-10T19:01:31.992Z,8.00
2023-04-10T19:03:59.724Z,7.07
2023-04-10T19:06:27.993Z,8.65
2023-04-10T19:08:55.796Z,7.15
2023-04-10T19:11:23.238Z,8.15
2023-04-10T19:13:50.476Z,9.23
2023-04-10T19:16:19.411Z,7.60
2023-04-10T19:18:49.842Z,8.52
2023-04-10T19:21:17.605Z,8.95
2023-04-10T19:23:45.287Z,8.85
2023-04-10T19:26:12.954Z,8.27
2023-04-10T19:28:40.427Z,8.55
2023-04-10T19:31:09.025Z,7.13
2023-04-10T19:33:36.411Z,7.72
2023-04-10T19:36:05.128Z,8.60
2023-04-10T19:38:34.967Z,8.48
2023-04-10T19:41:02.675Z,7.47
2023-04-10T19:43:29.940Z,8.85
2023-04-10T19:45:59.681Z,7.63
2023-04-10T19:48:27.704Z,6.32
2023-04-10T19:50:55.340Z,7.13
2023-04-10T19:53:22.590Z,7.45
2023-04-10T19:55:50.109Z,7.75
2023-04-10T19:58:35.624Z,7.40
2023-04-10T20:01:12.332Z,7.25
2023-04-10T20:03:39.764Z,6.03
2023-04-10T20:06:08.235Z,5.75
2023-04-10T20:08:36.506Z,5.22
2023-04-10T20:11:07.099Z,5.93
2023-04-10T20:13:34.790Z,6.30
2023-04-10T20:16:02.673Z,6.00
2023-04-10T20:18:31.923Z,4.93
2023-04-10T20:20:59.414Z,6.38
2023-04-10T20:23:26.765Z,4.75
2023-04-10T20:25:54.121Z,4.65
2023-04-10T20:28:21.461Z,5.32
2023-04-10T20:30:48.761Z,6.55
2023-04-10T20:33:15.793Z,5.32
2023-04-10T20:35:43.161Z,6.28
2023-04-10T20:38:10.618Z,6.38
2023-04-10T20:40:37.882Z,6.22
2023-04-10T20:43:10.921Z,6.18
2023-04-10T20:45:39.358Z,6.32
2023-04-10T20:48:08.126Z,5.35
2023-04-10T20:50:36.987Z,7.05
2023-04-10T20:53:04.123Z,7.45
2023-04-10T20:55:31.499Z,6.00
2023-04-10T20:57:58.678Z,6.82
2023-04-10T21:00:26.164Z,7.78
2023-04-10T21:02:53.330Z,8.20
2023-04-10T21:05:21.148Z,8.10
2023-04-10T21:07:48.404Z,6.82
2023-04-10T21:10:15.989Z,6.75
2023-04-10T21:12:43.401Z,7.00
2023-04-10T21:15:11.096Z,7.13
2023-04-10T21:17:38.193Z,6.97
2023-04-10T21:20:06.435Z,5.97
2023-04-10T21:22:33.690Z,5.90
2023-04-10T21:25:01.032Z,5.88
2023-04-10T21:27:28.216Z,5.35
2023-04-10T21:29:55.686Z,4.35
2023-04-10T21:32:22.826Z,5.80
2023-04-10T21:34:50.255Z,4.55
2023-04-10T21:37:17.353Z,5.57
2023-04-10T21:39:44.776Z,4.43
2023-04-10T21:42:11.947Z,4.40
2023-04-10T21:44:39.372Z,4.00
2023-04-10T21:47:06.603Z,4.80
2023-04-10T21:49:34.252Z,4.43
2023-04-10T21:52:06.684Z,4.70
2023-04-10T21:54:34.077Z,4.78
2023-04-10T21:57:02.299Z,3.67
2023-04-10T21:59:33.179Z,6.20
2023-04-10T22:02:00.392Z,4.32
2023-04-10T22:04:27.772Z,4.57
2023-04-10T22:06:54.852Z,4.60
2023-04-10T22:09:22.517Z,4.90
2023-04-10T22:11:49.738Z,4.50
2023-04-10T22:14:19.355Z,4.93
2023-04-10T22:16:47.946Z,5.47
2023-04-10T22:19:15.464Z,4.53
2023-04-10T22:21:42.623Z,4.53
2023-04-10T22:24:10.159Z,4.93
2023-04-10T22:26:37.291Z,4.93
2023-04-10T22:29:04.903Z,4.55
2023-04-10T22:31:32.124Z,4.75
2023-04-10T22:33:59.421Z,4.90
2023-04-10T22:36:35.803Z,4.88
2023-04-10T22:39:04.040Z,4.28
2023-04-10T22:41:31.803Z,5.15
2023-04-10T22:43:59.510Z,5.80
2023-04-10T22:46:26.789Z,5.28
2023-04-10T22:48:55.014Z,5.30
2023-04-10T22:51:22.302Z,5.57
2023-04-10T22:53:50.038Z,6.82
2023-04-10T22:56:18.206Z,6.15
2023-04-10T22:58:45.620Z,4.57
2023-04-10T23:01:13.320Z,6.45
2023-04-10T23:03:41.141Z,5.50
2023-04-10T23:06:08.995Z,6.60
2023-04-10T23:08:37.154Z,4.82
2023-04-10T23:11:04.464Z,5.28
2023-04-10T23:13:32.131Z,5.80
2023-04-10T23:15:59.208Z,5.40
2023-04-10T23:18:26.670Z,5.82
2023-04-10T23:20:53.898Z,5.68
2023-04-10T23:23:21.344Z,5.63
2023-04-10T23:25:58.863Z,6.57
2023-04-10T23:28:27.508Z,7.47
2023-04-10T23:30:54.704Z,6.05
2023-04-10T23:33:22.277Z,8.15
2023-04-10T23:35:49.479Z,7.15
2023-04-10T23:38:16.883Z,6.78
2023-04-10T23:40:43.962Z,7.95
2023-04-10T23:43:11.379Z,6.28
2023-04-10T23:45:38.528Z,7.18
2023-04-10T23:48:08.834Z,6.07
2023-04-10T23:50:36.084Z,6.82
2023-04-10T23:53:03.549Z,7.38
2023-04-10T23:55:30.679Z,7.30
2023-04-10T23:57:58.000Z,6.15
